Time;durP1;ratioP1;P1;durP2;ratioP2;P2;SDS_P1;SDS_P2;PMS_P1;PMS_P2;Temp;Humidity;BMP_temperature;BMP_pressure;BME280_temperature;BME280_humidity;BME280_pressure;Samples;Min_cycle;Max_cycle;Signal;HPM_P1;HPM_P2
2021/07/31 00:00:59;;;;;;;15.73;5.72;;;;;;;;;;4465135;32;20291;-57
2021/07/31 00:03:25;;;;;;;12.50;5.15;;;;;;;;;;4457811;32;20310;-58
2021/07/31 00:05:50;;;;;;;17.25;6.15;;;;;;;;;;4449752;32;20664;-58
2021/07/31 00:08:16;;;;;;;18.73;5.70;;;;;;;;;;4449835;32;20196;-58
2021/07/31 00:10:41;;;;;;;17.62;5.03;;;;;;;;;;4449437;32;20271;-57
2021/07/31 00:13:07;;;;;;;20.33;6.87;;;;;;;;;;4449796;32;20232;-57
2021/07/31 00:15:32;;;;;;;11.50;5.10;;;;;;;;;;4448277;32;20333;-57
2021/07/31 00:17:57;;;;;;;14.75;5.60;;;;;;;;;;4449753;32;20251;-57
2021/07/31 00:20:23;;;;;;;11.35;4.53;;;;;;;;;;4449307;32;20260;-57
2021/07/31 00:22:48;;;;;;;14.00;4.80;;;;;;;;;;4447860;32;20252;-57
2021/07/31 00:25:14;;;;;;;17.00;6.47;;;;;;;;;;4449192;32;20275;-57
2021/07/31 00:27:39;;;;;;;9.73;5.55;;;;;;;;;;4449334;32;20208;-57
2021/07/31 00:30:05;;;;;;;22.42;5.75;;;;;;;;;;4449264;32;20272;-57
2021/07/31 00:32:31;;;;;;;14.02;5.95;;;;;;;;;;4460449;32;20283;-58
2021/07/31 00:34:56;;;;;;;13.30;5.50;;;;;;;;;;4464972;32;20586;-57
2021/07/31 00:37:22;;;;;;;13.20;5.55;;;;;;;;;;4464636;32;20212;-57
2021/07/31 00:39:47;;;;;;;17.30;5.30;;;;;;;;;;4462906;32;20692;-57
2021/07/31 00:42:13;;;;;;;14.35;5.68;;;;;;;;;;4463831;32;20292;-58
2021/07/31 00:44:38;;;;;;;16.00;5.37;;;;;;;;;;4463852;32;20654;-58
2021/07/31 00:47:04;;;;;;;8.55;4.75;;;;;;;;;;4463841;32;20224;-57
2021/07/31 00:49:31;;;;;;;17.50;5.80;;;;;;;;;;4464428;32;20235;-57
2021/07/31 00:51:58;;;;;;;10.38;4.60;;;;;;;;;;4464910;32;20319;-57
2021/07/31 00:54:23;;;;;;;17.20;5.90;;;;;;;;;;4464138;32;20619;-57
2021/07/31 00:56:49;;;;;;;16.92;5.82;;;;;;;;;;4464121;32;20230;-57
2021/07/31 00:59:14;;;;;;;12.93;5.57;;;;;;;;;;4460157;32;20340;-57
2021/07/31 01:01:40;;;;;;;15.82;5.50;;;;;;;;;;4447334;32;20229;-57
2021/07/31 01:04:06;;;;;;;9.80;4.72;;;;;;;;;;4448817;32;20200;-58
2021/07/31 01:06:32;;;;;;;15.63;5.45;;;;;;;;;;4448492;32;20514;-58
2021/07/31 01:08:57;;;;;;;10.27;4.85;;;;;;;;;;4448789;32;20265;-57
2021/07/31 01:11:23;;;;;;;15.65;5.68;;;;;;;;;;4448756;32;20224;-57
2021/07/31 01:13:50;;;;;;;18.95;5.78;;;;;;;;;;4448839;32;20197;-56
2021/07/31 01:16:15;;;;;;;15.60;6.07;;;;;;;;;;4449045;32;20629;-57
2021/07/31 01:18:41;;;;;;;9.82;4.97;;;;;;;;;;4447402;32;20314;-57
2021/07/31 01:21:07;;;;;;;20.62;6.47;;;;;;;;;;4448664;32;20287;-57
2021/07/31 01:23:32;;;;;;;14.45;6.12;;;;;;;;;;4448560;32;20299;-58
2021/07/31 01:25:58;;;;;;;13.73;5.82;;;;;;;;;;4447434;32;20311;-58
2021/07/31 01:28:24;;;;;;;15.55;6.53;;;;;;;;;;4448580;32;20617;-58
2021/07/31 01:30:50;;;;;;;20.37;6.35;;;;;;;;;;4449163;32;20268;-58
2021/07/31 01:33:16;;;;;;;13.70;5.68;;;;;;;;;;4464115;32;20614;-57
2021/07/31 01:35:41;;;;;;;14.50;6.15;;;;;;;;;;4464374;32;20348;-57
2021/07/31 01:38:07;;;;;;;13.35;5.43;;;;;;;;;;4464160;32;20246;-57
2021/07/31 01:40:32;;;;;;;13.75;6.03;;;;;;;;;;4464009;32;20286;-57
2021/07/31 01:42:58;;;;;;;17.25;5.55;;;;;;;;;;4464395;32;20216;-57
2021/07/31 01:45:24;;;;;;;18.37;5.70;;;;;;;;;;4463929;32;20262;-56
2021/07/31 01:47:49;;;;;;;10.15;5.32;;;;;;;;;;4464135;32;20224;-57
2021/07/31 01:50:15;;;;;;;12.15;6.10;;;;;;;;;;4463122;32;20604;-57
2021/07/31 01:52:41;;;;;;;14.35;7.62;;;;;;;;;;4464206;32;20272;-57
2021/07/31 01:55:06;;;;;;;26.45;8.02;;;;;;;;;;4462133;32;20267;-59
2021/07/31 01:57:32;;;;;;;11.88;6.50;;;;;;;;;;4448715;32;20342;-57
2021/07/31 01:59:57;;;;;;;18.42;8.38;;;;;;;;;;4448520;32;20219;-57
2021/07/31 02:02:23;;;;;;;17.87;9.18;;;;;;;;;;4448404;32;20224;-57
2021/07/31 02:04:48;;;;;;;15.63;8.82;;;;;;;;;;4448310;32;20265;-57
2021/07/31 02:07:14;;;;;;;15.73;9.98;;;;;;;;;;4448688;32;20271;-57
2021/07/31 02:09:39;;;;;;;22.62;10.68;;;;;;;;;;4448897;32;20227;-57
2021/07/31 02:12:05;;;;;;;20.95;9.00;;;;;;;;;;4451634;32;20228;-56
2021/07/31 02:14:30;;;;;;;15.45;6.87;;;;;;;;;;4451214;32;20223;-57
2021/07/31 02:16:56;;;;;;;26.27;7.90;;;;;;;;;;4451328;32;20239;-57
2021/07/31 02:19:21;;;;;;;18.42;6.90;;;;;;;;;;4451282;32;20271;-56
2021/07/31 02:21:47;;;;;;;12.85;6.55;;;;;;;;;;4451004;32;20236;-57
2021/07/31 02:24:13;;;;;;;17.65;7.12;;;;;;;;;;4450917;32;20200;-57
2021/07/31 02:26:38;;;;;;;13.88;6.25;;;;;;;;;;4450981;32;20228;-57
2021/07/31 02:29:04;;;;;;;13.35;6.32;;;;;;;;;;4451119;32;20509;-58
2021/07/31 02:31:30;;;;;;;17.85;7.43;;;;;;;;;;4455783;32;20608;-57
2021/07/31 02:33:55;;;;;;;17.00;6.95;;;;;;;;;;4466452;32;20697;-58
2021/07/31 02:36:21;;;;;;;17.25;8.45;;;;;;;;;;4466671;32;20219;-58
2021/07/31 02:38:46;;;;;;;14.30;9.05;;;;;;;;;;4466033;32;20317;-58
2021/07/31 02:41:12;;;;;;;14.23;6.70;;;;;;;;;;4466422;32;20212;-58
2021/07/31 02:43:37;;;;;;;22.90;7.72;;;;;;;;;;4465894;32;20204;-56
2021/07/31 02:46:08;;;;;;;17.37;7.25;;;;;;;;;;4465571;32;20671;-57
2021/07/31 02:48:34;;;;;;;13.70;7.35;;;;;;;;;;4465417;32;20212;-57
2021/07/31 02:51:03;;;;;;;9.75;5.70;;;;;;;;;;4465094;32;20232;-57
2021/07/31 02:53:28;;;;;;;10.98;6.22;;;;;;;;;;4450604;32;20226;-57
2021/07/31 02:55:54;;;;;;;16.35;5.43;;;;;;;;;;4449132;32;20377;-57
2021/07/31 02:58:19;;;;;;;13.18;5.55;;;;;;;;;;4450487;32;20197;-57
2021/07/31 03:00:44;;;;;;;13.30;5.65;;;;;;;;;;4450535;32;20296;-56
2021/07/31 03:03:10;;;;;;;13.50;5.97;;;;;;;;;;4450392;32;20594;-57
2021/07/31 03:05:35;;;;;;;21.02;5.68;;;;;;;;;;4450634;32;20256;-57
2021/07/31 03:08:01;;;;;;;16.17;6.43;;;;;;;;;;4450490;32;20786;-57
2021/07/31 03:10:26;;;;;;;9.48;4.87;;;;;;;;;;4450150;32;20264;-57
2021/07/31 03:12:52;;;;;;;13.70;5.10;;;;;;;;;;4450504;32;20529;-57
2021/07/31 03:15:17;;;;;;;16.83;5.43;;;;;;;;;;4450384;32;20290;-57
2021/07/31 03:17:43;;;;;;;23.27;6.90;;;;;;;;;;4450394;32;20224;-57
2021/07/31 03:20:09;;;;;;;11.12;5.72;;;;;;;;;;4450350;32;20302;-57
2021/07/31 03:22:34;;;;;;;14.40;5.57;;;;;;;;;;4450254;32;20298;-59
2021/07/31 03:25:00;;;;;;;16.98;5.05;;;;;;;;;;4450448;32;20201;-57
2021/07/31 03:27:25;;;;;;;10.55;5.75;;;;;;;;;;4448871;32;20221;-57
2021/07/31 03:29:51;;;;;;;21.17;6.00;;;;;;;;;;4450373;32;20422;-57
2021/07/31 03:32:16;;;;;;;18.60;7.22;;;;;;;;;;4458630;32;20244;-57
2021/07/31 03:34:42;;;;;;;17.35;7.93;;;;;;;;;;4464174;32;20299;-58
2021/07/31 03:37:07;;;;;;;23.25;8.75;;;;;;;;;;4465465;32;20230;-58
2021/07/31 03:39:33;;;;;;;24.77;9.45;;;;;;;;;;4465296;32;20196;-57
2021/07/31 03:41:58;;;;;;;20.10;8.57;;;;;;;;;;4465570;32;20544;-57
2021/07/31 03:44:24;;;;;;;21.45;7.55;;;;;;;;;;4465119;32;20501;-57
2021/07/31 03:46:50;;;;;;;21.67;8.88;;;;;;;;;;4465310;32;20446;-56
2021/07/31 03:49:16;;;;;;;14.27;7.47;;;;;;;;;;4452814;32;20660;-56
2021/07/31 03:51:42;;;;;;;17.62;8.40;;;;;;;;;;4449795;32;20297;-57
2021/07/31 03:54:07;;;;;;;22.23;7.87;;;;;;;;;;4449560;32;20223;-56
2021/07/31 03:56:33;;;;;;;14.43;7.95;;;;;;;;;;4449580;32;20212;-57
2021/07/31 03:58:58;;;;;;;16.05;6.93;;;;;;;;;;4449668;32;20700;-58
2021/07/31 04:01:25;;;;;;;16.10;8.63;;;;;;;;;;4448427;32;20293;-57
2021/07/31 04:03:54;;;;;;;19.35;7.03;;;;;;;;;;4449666;32;20209;-58
2021/07/31 04:06:19;;;;;;;22.80;6.95;;;;;;;;;;4449845;32;20281;-57
2021/07/31 04:08:45;;;;;;;25.75;7.05;;;;;;;;;;4449460;32;20279;-57
2021/07/31 04:11:10;;;;;;;11.93;5.68;;;;;;;;;;4449664;32;20643;-58
2021/07/31 04:13:36;;;;;;;16.98;6.35;;;;;;;;;;4449381;32;20192;-57
2021/07/31 04:16:07;;;;;;;14.98;6.18;;;;;;;;;;4449755;32;20691;-57
2021/07/31 04:18:32;;;;;;;19.08;7.68;;;;;;;;;;4449714;32;20250;-57
2021/07/31 04:20:58;;;;;;;12.20;5.95;;;;;;;;;;4449457;32;20248;-56
2021/07/31 04:23:23;;;;;;;15.90;5.78;;;;;;;;;;4448957;32;20533;-57
2021/07/31 04:25:48;;;;;;;14.13;6.28;;;;;;;;;;4449482;32;20284;-56
2021/07/31 04:28:14;;;;;;;14.38;7.05;;;;;;;;;;4449256;32;20837;-56
2021/07/31 04:30:39;;;;;;;16.27;6.70;;;;;;;;;;4449535;32;20312;-57
2021/07/31 04:33:05;;;;;;;13.80;7.30;;;;;;;;;;4463712;32;20238;-57
2021/07/31 04:35:30;;;;;;;18.15;6.68;;;;;;;;;;4464469;32;20306;-58
2021/07/31 04:37:56;;;;;;;21.60;6.57;;;;;;;;;;4463591;32;20727;-57
2021/07/31 04:40:21;;;;;;;22.98;8.13;;;;;;;;;;4464793;32;20720;-57
2021/07/31 04:42:47;;;;;;;13.23;6.60;;;;;;;;;;4464430;32;20671;-57
2021/07/31 04:45:12;;;;;;;14.23;7.20;;;;;;;;;;4454076;32;20310;-57
2021/07/31 04:47:39;;;;;;;11.90;5.75;;;;;;;;;;4448811;32;20281;-57
2021/07/31 04:50:07;;;;;;;15.85;6.60;;;;;;;;;;4448027;32;20295;-57
2021/07/31 04:52:34;;;;;;;14.10;7.28;;;;;;;;;;4449142;32;20248;-57
2021/07/31 04:54:59;;;;;;;12.57;7.22;;;;;;;;;;4449012;32;20188;-57
2021/07/31 04:57:25;;;;;;;15.55;6.65;;;;;;;;;;4448061;32;20689;-57
2021/07/31 04:59:50;;;;;;;16.08;7.37;;;;;;;;;;4448988;32;20204;-57
2021/07/31 05:02:16;;;;;;;20.33;7.62;;;;;;;;;;4449246;32;20350;-56
2021/07/31 05:04:41;;;;;;;26.67;7.82;;;;;;;;;;4449145;32;20260;-57
2021/07/31 05:07:10;;;;;;;20.55;7.55;;;;;;;;;;4449126;32;20239;-56
2021/07/31 05:09:35;;;;;;;23.20;7.47;;;;;;;;;;4447667;32;21551;-57
2021/07/31 05:12:01;;;;;;;31.10;6.62;;;;;;;;;;4449370;32;20240;-57
2021/07/31 05:14:27;;;;;;;15.32;6.53;;;;;;;;;;4448968;32;20268;-56
2021/07/31 05:16:53;;;;;;;11.60;6.85;;;;;;;;;;4449207;32;20216;-58
2021/07/31 05:19:19;;;;;;;22.42;7.40;;;;;;;;;;4449026;32;20544;-55
2021/07/31 05:21:44;;;;;;;15.77;6.55;;;;;;;;;;4447585;32;20288;-57
2021/07/31 05:24:10;;;;;;;18.12;6.80;;;;;;;;;;4448987;32;20282;-57
2021/07/31 05:26:40;;;;;;;12.13;6.20;;;;;;;;;;4448755;32;20308;-57
2021/07/31 05:29:06;;;;;;;12.68;6.37;;;;;;;;;;4448739;32;20689;-56
2021/07/31 05:31:32;;;;;;;13.73;6.75;;;;;;;;;;4453341;32;20653;-56
2021/07/31 05:33:58;;;;;;;15.77;6.53;;;;;;;;;;4462940;32;20245;-57
2021/07/31 05:36:24;;;;;;;16.37;6.65;;;;;;;;;;4464405;32;20547;-58
2021/07/31 05:38:49;;;;;;;17.25;6.50;;;;;;;;;;4464034;32;20325;-58
2021/07/31 05:41:16;;;;;;;19.58;7.35;;;;;;;;;;4455160;32;20280;-57
2021/07/31 05:43:42;;;;;;;17.73;6.72;;;;;;;;;;4448876;32;20230;-57
2021/07/31 05:46:07;;;;;;;15.35;5.75;;;;;;;;;;4465880;32;20343;-56
2021/07/31 05:48:33;;;;;;;15.18;7.47;;;;;;;;;;4466908;32;20196;-58
2021/07/31 05:50:58;;;;;;;20.52;7.03;;;;;;;;;;4467291;32;20530;-57
2021/07/31 05:53:24;;;;;;;17.67;7.72;;;;;;;;;;4465527;32;20273;-57
2021/07/31 05:55:52;;;;;;;19.77;7.55;;;;;;;;;;4466177;32;20279;-57
2021/07/31 05:58:17;;;;;;;15.55;7.95;;;;;;;;;;4467129;32;20275;-56
2021/07/31 06:00:43;;;;;;;11.82;6.68;;;;;;;;;;4466944;32;20286;-57
2021/07/31 06:03:08;;;;;;;18.90;6.78;;;;;;;;;;4466786;32;20714;-56
2021/07/31 06:05:34;;;;;;;19.52;7.40;;;;;;;;;;4466956;32;20313;-58
2021/07/31 06:07:59;;;;;;;18.37;7.30;;;;;;;;;;4467126;32;20207;-57
2021/07/31 06:10:25;;;;;;;16.50;7.00;;;;;;;;;;4467575;32;20744;-56
2021/07/31 06:12:50;;;;;;;12.30;6.80;;;;;;;;;;4467129;32;20288;-56
2021/07/31 06:15:16;;;;;;;22.30;7.03;;;;;;;;;;4467153;32;20251;-57
2021/07/31 06:17:41;;;;;;;22.85;6.68;;;;;;;;;;4466793;32;20563;-57
2021/07/31 06:20:08;;;;;;;15.20;6.70;;;;;;;;;;4466830;32;20290;-57
2021/07/31 06:22:34;;;;;;;19.87;6.93;;;;;;;;;;4466181;32;20224;-58
2021/07/31 06:24:59;;;;;;;20.40;7.35;;;;;;;;;;4466537;32;20215;-57
2021/07/31 06:27:24;;;;;;;15.10;7.10;;;;;;;;;;4466775;32;20275;-57
2021/07/31 06:29:50;;;;;;;16.33;7.28;;;;;;;;;;4466609;32;20196;-57
2021/07/31 06:32:15;;;;;;;12.88;6.12;;;;;;;;;;4466984;32;20273;-57
2021/07/31 06:34:41;;;;;;;16.00;7.03;;;;;;;;;;4466506;32;20196;-57
2021/07/31 06:37:06;;;;;;;16.90;7.43;;;;;;;;;;4459975;32;20272;-58
2021/07/31 06:39:32;;;;;;;27.13;7.28;;;;;;;;;;4449635;32;20224;-56
2021/07/31 06:41:57;;;;;;;13.88;6.85;;;;;;;;;;4451213;32;20224;-57
2021/07/31 06:44:22;;;;;;;16.55;7.90;;;;;;;;;;4455535;32;20213;-57
2021/07/31 06:46:48;;;;;;;14.18;7.35;;;;;;;;;;4466375;32;20242;-56
2021/07/31 06:49:13;;;;;;;14.82;6.30;;;;;;;;;;4466771;32;20205;-57
2021/07/31 06:51:39;;;;;;;17.02;6.62;;;;;;;;;;4466604;32;20540;-56
2021/07/31 06:54:04;;;;;;;20.80;7.68;;;;;;;;;;4466411;32;20689;-57
2021/07/31 06:56:33;;;;;;;20.90;7.05;;;;;;;;;;4466307;32;20638;-59
2021/07/31 06:58:59;;;;;;;32.25;8.00;;;;;;;;;;4466295;32;20234;-57
2021/07/31 07:01:24;;;;;;;15.02;6.87;;;;;;;;;;4466187;32;20232;-57
2021/07/31 07:03:52;;;;;;;15.50;6.45;;;;;;;;;;4466227;32;20660;-56
2021/07/31 07:06:17;;;;;;;17.70;6.78;;;;;;;;;;4466136;32;20288;-57
2021/07/31 07:08:43;;;;;;;17.15;7.28;;;;;;;;;;4465841;32;20234;-56
2021/07/31 07:11:13;;;;;;;12.80;6.72;;;;;;;;;;4466576;32;20321;-57
2021/07/31 07:13:38;;;;;;;10.68;6.10;;;;;;;;;;4465953;32;20268;-56
2021/07/31 07:16:04;;;;;;;16.80;6.50;;;;;;;;;;4466362;32;20350;-56
2021/07/31 07:18:30;;;;;;;16.90;6.03;;;;;;;;;;4466334;32;20230;-57
2021/07/31 07:20:55;;;;;;;13.23;6.12;;;;;;;;;;4466104;32;20298;-57
2021/07/31 07:23:21;;;;;;;15.07;6.50;;;;;;;;;;4466143;32;20646;-57
2021/07/31 07:25:46;;;;;;;14.13;5.97;;;;;;;;;;4450827;32;20600;-57
2021/07/31 07:28:11;;;;;;;18.00;6.47;;;;;;;;;;4449275;32;20220;-57
2021/07/31 07:30:37;;;;;;;18.27;7.80;;;;;;;;;;4450595;32;20379;-57
2021/07/31 07:33:03;;;;;;;19.27;7.47;;;;;;;;;;4449901;32;20244;-57
2021/07/31 07:35:29;;;;;;;15.05;6.43;;;;;;;;;;4450283;32;20291;-58
2021/07/31 07:37:55;;;;;;;16.73;7.10;;;;;;;;;;4450020;32;20348;-56
2021/07/31 07:40:20;;;;;;;20.20;6.95;;;;;;;;;;4450102;32;20347;-57
2021/07/31 07:42:46;;;;;;;14.05;6.95;;;;;;;;;;4449437;32;20220;-56
2021/07/31 07:45:11;;;;;;;14.98;6.68;;;;;;;;;;4450041;32;20327;-57
2021/07/31 07:47:37;;;;;;;16.48;7.20;;;;;;;;;;4450305;32;20221;-57
2021/07/31 07:50:04;;;;;;;15.23;6.22;;;;;;;;;;4449874;32;20330;-58
2021/07/31 07:52:30;;;;;;;16.90;6.85;;;;;;;;;;4449790;32;20735;-57
2021/07/31 07:54:55;;;;;;;16.35;6.43;;;;;;;;;;4449926;32;20881;-56
2021/07/31 07:57:21;;;;;;;23.80;8.07;;;;;;;;;;4450310;32;20239;-57
2021/07/31 07:59:46;;;;;;;15.07;6.72;;;;;;;;;;4449358;32;20651;-56
2021/07/31 08:02:12;;;;;;;20.37;7.00;;;;;;;;;;4449660;32;20293;-56
2021/07/31 08:04:37;;;;;;;16.25;7.22;;;;;;;;;;4450265;32;20692;-58
2021/07/31 08:07:03;;;;;;;19.55;7.30;;;;;;;;;;4449092;32;20228;-58
2021/07/31 08:09:28;;;;;;;11.50;6.37;;;;;;;;;;4449696;32;20201;-57
2021/07/31 08:11:54;;;;;;;17.15;6.47;;;;;;;;;;4448603;32;20228;-57
2021/07/31 08:14:19;;;;;;;14.85;6.45;;;;;;;;;;4449992;32;20196;-57
2021/07/31 08:16:44;;;;;;;21.10;7.07;;;;;;;;;;4449696;32;20302;-57
2021/07/31 08:19:10;;;;;;;13.30;7.18;;;;;;;;;;4449644;32;20686;-57
2021/07/31 08:21:37;;;;;;;13.15;6.57;;;;;;;;;;4449557;32;20639;-58
2021/07/31 08:24:04;;;;;;;25.02;7.00;;;;;;;;;;4449128;32;20200;-57
2021/07/31 08:26:29;;;;;;;13.65;7.32;;;;;;;;;;4448810;32;20822;-57
2021/07/31 08:28:55;;;;;;;19.55;7.03;;;;;;;;;;4449281;32;20393;-57
2021/07/31 08:31:20;;;;;;;21.48;7.05;;;;;;;;;;4449625;32;20220;-57
2021/07/31 08:33:46;;;;;;;15.70;6.82;;;;;;;;;;4459161;32;20228;-57
2021/07/31 08:36:11;;;;;;;17.83;6.82;;;;;;;;;;4465239;32;20216;-57
2021/07/31 08:38:37;;;;;;;10.98;5.97;;;;;;;;;;4465299;32;20201;-57
2021/07/31 08:41:04;;;;;;;14.63;6.65;;;;;;;;;;4465421;32;20263;-56
2021/07/31 08:43:30;;;;;;;17.90;7.03;;;;;;;;;;4464053;32;20224;-57
2021/07/31 08:45:56;;;;;;;13.43;6.78;;;;;;;;;;4464888;32;20307;-58
2021/07/31 08:48:27;;;;;;;22.37;6.55;;;;;;;;;;4464869;32;20275;-57
2021/07/31 08:50:53;;;;;;;15.00;6.95;;;;;;;;;;4464956;32;20534;-57
2021/07/31 08:53:24;;;;;;;14.20;7.20;;;;;;;;;;4464639;32;20196;-58
2021/07/31 08:55:50;;;;;;;12.52;6.90;;;;;;;;;;4464650;32;20188;-59
2021/07/31 08:58:15;;;;;;;17.52;7.15;;;;;;;;;;4464949;32;20544;-57
2021/07/31 09:00:41;;;;;;;13.93;6.72;;;;;;;;;;4464963;32;20391;-58
2021/07/31 09:03:06;;;;;;;12.63;7.18;;;;;;;;;;4464187;32;20655;-57
2021/07/31 09:05:34;;;;;;;15.95;7.72;;;;;;;;;;4464938;32;20662;-57
2021/07/31 09:08:01;;;;;;;9.98;7.25;;;;;;;;;;4464728;32;20238;-57
2021/07/31 09:10:28;;;;;;;25.67;7.68;;;;;;;;;;4464584;32;20288;-57
2021/07/31 09:13:02;;;;;;;14.95;7.12;;;;;;;;;;4464819;32;20220;-57
2021/07/31 09:15:38;;;;;;;21.80;7.20;;;;;;;;;;4465494;32;20229;-57
2021/07/31 09:18:31;;;;;;;21.42;7.47;;;;;;;;;;4465070;32;20246;-58
2021/07/31 09:21:01;;;;;;;16.08;6.15;;;;;;;;;;4467990;32;20243;-58
2021/07/31 09:23:36;;;;;;;14.18;6.65;;;;;;;;;;4468291;32;20252;-56
2021/07/31 09:26:02;;;;;;;16.05;6.55;;;;;;;;;;4467754;32;20646;-58
2021/07/31 09:28:28;;;;;;;15.43;6.20;;;;;;;;;;4467504;32;20580;-56
2021/07/31 09:30:54;;;;;;;15.88;6.32;;;;;;;;;;4465742;32;20359;-57
2021/07/31 09:33:20;;;;;;;19.80;6.97;;;;;;;;;;4452140;32;20231;-55
2021/07/31 09:35:46;;;;;;;22.52;7.60;;;;;;;;;;4452123;32;20325;-57
2021/07/31 09:38:12;;;;;;;11.55;6.75;;;;;;;;;;4451834;32;20273;-57
2021/07/31 09:40:38;;;;;;;20.73;7.03;;;;;;;;;;4450871;32;20386;-58
2021/07/31 09:43:14;;;;;;;21.00;7.40;;;;;;;;;;4451771;32;20243;-58
2021/07/31 09:45:40;;;;;;;16.40;6.30;;;;;;;;;;4451963;32;20272;-58
2021/07/31 09:48:07;;;;;;;12.05;6.43;;;;;;;;;;4451871;32;20633;-57
2021/07/31 09:50:43;;;;;;;13.60;6.87;;;;;;;;;;4451793;32;20267;-57
2021/07/31 09:53:09;;;;;;;15.48;7.57;;;;;;;;;;4452141;32;20302;-58
2021/07/31 09:55:41;;;;;;;18.80;7.05;;;;;;;;;;4452037;32;20359;-58
2021/07/31 09:58:07;;;;;;;15.50;7.00;;;;;;;;;;4452056;32;20252;-58
2021/07/31 10:00:32;;;;;;;15.13;6.07;;;;;;;;;;4451761;32;20589;-58
2021/07/31 10:02:58;;;;;;;16.85;6.90;;;;;;;;;;4450942;32;20258;-57
2021/07/31 10:05:23;;;;;;;14.68;6.50;;;;;;;;;;4451568;32;20294;-57
2021/07/31 10:07:49;;;;;;;22.77;6.65;;;;;;;;;;4451441;32;20620;-58
2021/07/31 10:10:18;;;;;;;19.02;6.60;;;;;;;;;;4450533;32;20343;-57
2021/07/31 10:12:43;;;;;;;14.77;6.32;;;;;;;;;;4451702;32;20216;-58
2021/07/31 10:15:09;;;;;;;6.50;4.65;;;;;;;;;;4450378;32;20318;-57
2021/07/31 10:17:39;;;;;;;17.08;6.05;;;;;;;;;;4451714;32;20283;-57
2021/07/31 10:20:05;;;;;;;16.30;6.72;;;;;;;;;;4451093;32;20261;-57
2021/07/31 10:22:41;;;;;;;10.20;5.97;;;;;;;;;;4450174;32;20292;-58
2021/07/31 10:25:08;;;;;;;12.50;6.25;;;;;;;;;;4451155;32;20262;-57
2021/07/31 10:27:35;;;;;;;17.70;6.35;;;;;;;;;;4451361;32;20311;-56
2021/07/31 10:30:01;;;;;;;14.32;6.25;;;;;;;;;;4450171;32;20212;-57
2021/07/31 10:32:35;;;;;;;26.75;7.55;;;;;;;;;;4460084;32;20701;-57
2021/07/31 10:35:05;;;;;;;10.35;5.97;;;;;;;;;;4466526;32;20227;-57
2021/07/31 10:37:37;;;;;;;11.93;6.30;;;;;;;;;;4466706;32;20317;-57
2021/07/31 10:40:06;;;;;;;19.48;6.55;;;;;;;;;;4466395;32;20226;-57
2021/07/31 10:42:47;;;;;;;22.80;6.53;;;;;;;;;;4466149;32;20220;-57
2021/07/31 10:45:15;;;;;;;9.82;5.28;;;;;;;;;;4467004;32;20287;-57
2021/07/31 10:47:41;;;;;;;16.35;6.70;;;;;;;;;;4466857;32;20216;-57
2021/07/31 10:50:25;;;;;;;10.48;5.93;;;;;;;;;;4466157;32;20303;-58
2021/07/31 10:53:02;;;;;;;9.55;5.32;;;;;;;;;;4466138;32;20657;-57
2021/07/31 10:55:37;;;;;;;11.63;5.80;;;;;;;;;;4466615;32;20192;-57
2021/07/31 10:58:05;;;;;;;10.38;5.87;;;;;;;;;;4466366;32;20334;-57
2021/07/31 11:00:38;;;;;;;16.10;6.70;;;;;;;;;;4466438;32;20331;-57
2021/07/31 11:03:24;;;;;;;18.58;6.22;;;;;;;;;;4465943;32;20611;-58
2021/07/31 11:05:58;;;;;;;9.85;5.93;;;;;;;;;;4464946;32;20278;-59
2021/07/31 11:08:52;;;;;;;15.90;5.37;;;;;;;;;;4466265;32;20208;-58
2021/07/31 11:11:18;;;;;;;13.05;6.07;;;;;;;;;;4452405;32;20545;-58
2021/07/31 11:13:43;;;;;;;7.62;4.80;;;;;;;;;;4465989;32;20220;-56
2021/07/31 11:16:13;;;;;;;14.13;6.50;;;;;;;;;;4466020;32;20408;-57
2021/07/31 11:18:40;;;;;;;16.70;6.37;;;;;;;;;;4466130;32;20204;-58
2021/07/31 11:21:09;;;;;;;14.98;5.53;;;;;;;;;;4463073;32;20740;-58
2021/07/31 11:23:48;;;;;;;13.70;5.72;;;;;;;;;;4450765;32;20296;-57
2021/07/31 11:26:30;;;;;;;18.35;6.05;;;;;;;;;;4450328;32;20205;-57
2021/07/31 11:28:55;;;;;;;11.30;5.60;;;;;;;;;;4450341;32;20723;-57
2021/07/31 11:31:21;;;;;;;12.63;5.75;;;;;;;;;;4454170;32;20237;-57
2021/07/31 11:34:06;;;;;;;12.18;5.18;;;;;;;;;;4453525;32;20206;-56
2021/07/31 11:36:31;;;;;;;19.33;6.80;;;;;;;;;;4450558;32;20545;-58
2021/07/31 11:38:58;;;;;;;18.52;6.87;;;;;;;;;;4448853;32;20335;-57
2021/07/31 11:41:24;;;;;;;19.37;5.93;;;;;;;;;;4448655;32;20225;-58
2021/07/31 11:43:53;;;;;;;9.02;5.43;;;;;;;;;;4448193;32;20255;-57
2021/07/31 11:46:28;;;;;;;10.65;5.20;;;;;;;;;;4448901;32;20232;-57
2021/07/31 11:48:57;;;;;;;12.48;5.97;;;;;;;;;;4449982;32;20709;-57
2021/07/31 11:51:24;;;;;;;11.93;5.40;;;;;;;;;;4450003;32;20244;-56
2021/07/31 11:53:49;;;;;;;19.58;6.30;;;;;;;;;;4450355;32;20230;-57
2021/07/31 11:56:21;;;;;;;16.08;5.57;;;;;;;;;;4450200;32;20217;-56
2021/07/31 11:58:50;;;;;;;10.93;4.72;;;;;;;;;;4448690;32;20292;-57
2021/07/31 12:01:16;;;;;;;11.43;4.90;;;;;;;;;;4450043;32;20619;-57
2021/07/31 12:03:44;;;;;;;8.27;4.80;;;;;;;;;;4449926;32;20272;-59
2021/07/31 12:06:36;;;;;;;15.20;5.55;;;;;;;;;;4449606;32;21410;-57
2021/07/31 12:09:04;;;;;;;10.35;4.30;;;;;;;;;;4449435;32;20280;-57
2021/07/31 12:11:41;;;;;;;11.25;4.70;;;;;;;;;;4449564;32;20220;-57
2021/07/31 12:14:29;;;;;;;13.15;5.10;;;;;;;;;;4449368;32;20576;-57
2021/07/31 12:17:29;;;;;;;16.73;6.20;;;;;;;;;;4449653;32;20596;-56
2021/07/31 12:19:56;;;;;;;16.05;4.75;;;;;;;;;;4448878;32;20231;-57
2021/07/31 12:22:30;;;;;;;18.58;5.50;;;;;;;;;;4449553;32;20250;-58
2021/07/31 12:25:15;;;;;;;9.95;5.07;;;;;;;;;;4449155;32;20312;-58
2021/07/31 12:27:58;;;;;;;13.88;5.57;;;;;;;;;;4449412;32;20237;-57
2021/07/31 12:30:36;;;;;;;14.00;5.20;;;;;;;;;;4449217;32;20616;-57
2021/07/31 12:33:22;;;;;;;14.13;4.20;;;;;;;;;;4463013;32;20334;-58
2021/07/31 12:35:54;;;;;;;11.90;4.53;;;;;;;;;;4464771;32;20220;-58
2021/07/31 12:38:24;;;;;;;12.15;4.97;;;;;;;;;;4464878;32;20208;-58
2021/07/31 12:40:57;;;;;;;8.85;4.45;;;;;;;;;;4464956;32;20257;-58
2021/07/31 12:43:25;;;;;;;17.23;5.15;;;;;;;;;;4464941;32;20226;-58
2021/07/31 12:45:52;;;;;;;18.62;4.57;;;;;;;;;;4464746;32;20192;-58
2021/07/31 12:48:17;;;;;;;12.85;4.62;;;;;;;;;;4464879;32;20261;-57
2021/07/31 12:50:43;;;;;;;23.35;5.12;;;;;;;;;;4464554;32;20282;-58
2021/07/31 12:53:14;;;;;;;21.98;5.62;;;;;;;;;;4464536;32;20241;-57
2021/07/31 12:55:40;;;;;;;13.27;5.47;;;;;;;;;;4465305;32;20576;-58
2021/07/31 12:58:06;;;;;;;13.60;4.72;;;;;;;;;;4464399;32;20729;-57
2021/07/31 13:00:31;;;;;;;8.25;5.18;;;;;;;;;;4464299;32;20302;-58
2021/07/31 13:02:58;;;;;;;12.18;6.28;;;;;;;;;;4464115;32;20224;-57
2021/07/31 13:05:23;;;;;;;12.88;5.75;;;;;;;;;;4462935;32;20564;-57
2021/07/31 13:07:53;;;;;;;11.77;5.80;;;;;;;;;;4464078;32;20208;-57
2021/07/31 13:10:20;;;;;;;12.68;5.97;;;;;;;;;;4464620;32;20204;-57
2021/07/31 13:12:46;;;;;;;18.55;6.53;;;;;;;;;;4464700;32;20271;-57
2021/07/31 13:15:12;;;;;;;19.90;6.03;;;;;;;;;;4451473;32;20296;-58
2021/07/31 13:17:37;;;;;;;15.55;6.00;;;;;;;;;;4449065;32;20251;-56
2021/07/31 13:20:04;;;;;;;13.77;6.15;;;;;;;;;;4447448;32;20299;-57
2021/07/31 13:22:30;;;;;;;9.98;5.97;;;;;;;;;;4448787;32;20585;-58
2021/07/31 13:24:57;;;;;;;10.80;6.32;;;;;;;;;;4448556;32;20275;-57
2021/07/31 13:27:24;;;;;;;22.20;7.53;;;;;;;;;;4448846;32;20305;-57
2021/07/31 13:29:49;;;;;;;15.77;6.72;;;;;;;;;;4447430;32;20542;-57
2021/07/31 13:32:15;;;;;;;12.70;6.30;;;;;;;;;;4455946;32;20313;-58
2021/07/31 13:34:40;;;;;;;14.43;6.90;;;;;;;;;;4448886;32;20220;-58
2021/07/31 13:37:08;;;;;;;12.25;6.20;;;;;;;;;;4448516;32;20248;-57
2021/07/31 13:39:42;;;;;;;20.40;6.03;;;;;;;;;;4448640;32;20212;-57
2021/07/31 13:42:09;;;;;;;12.90;6.95;;;;;;;;;;4447674;32;20525;-58
2021/07/31 13:44:35;;;;;;;19.35;7.37;;;;;;;;;;4448656;32;20757;-57
2021/07/31 13:47:02;;;;;;;15.55;5.87;;;;;;;;;;4448729;32;20253;-58
2021/07/31 13:49:27;;;;;;;15.45;6.10;;;;;;;;;;4448203;32;20235;-57
2021/07/31 13:51:53;;;;;;;10.35;6.47;;;;;;;;;;4448131;32;20282;-57
2021/07/31 13:54:18;;;;;;;9.40;5.60;;;;;;;;;;4448440;32;20218;-57
2021/07/31 13:56:44;;;;;;;14.15;6.45;;;;;;;;;;4448441;32;20216;-58
2021/07/31 13:59:10;;;;;;;12.32;5.65;;;;;;;;;;4448147;32;20213;-58
2021/07/31 14:01:36;;;;;;;13.25;6.35;;;;;;;;;;4447191;32;20299;-57
2021/07/31 14:04:01;;;;;;;22.00;8.00;;;;;;;;;;4447776;32;20228;-58
2021/07/31 14:06:27;;;;;;;16.23;7.85;;;;;;;;;;4450512;32;20235;-58
2021/07/31 14:08:53;;;;;;;24.70;10.25;;;;;;;;;;4451027;32;20196;-57
2021/07/31 14:11:18;;;;;;;20.05;8.57;;;;;;;;;;4450907;32;20705;-57
2021/07/31 14:13:43;;;;;;;11.77;7.12;;;;;;;;;;4449585;32;20525;-57
2021/07/31 14:16:09;;;;;;;16.77;6.45;;;;;;;;;;4451150;32;20692;-58
2021/07/31 14:18:34;;;;;;;20.17;7.43;;;;;;;;;;4451204;32;20298;-58
2021/07/31 14:21:04;;;;;;;15.98;6.82;;;;;;;;;;4449344;32;20409;-58
2021/07/31 14:23:30;;;;;;;16.50;6.87;;;;;;;;;;4449630;32;20291;-58
2021/07/31 14:25:55;;;;;;;13.68;6.40;;;;;;;;;;4450888;32;20280;-58
2021/07/31 14:28:22;;;;;;;15.77;6.75;;;;;;;;;;4450969;32;20219;-57
2021/07/31 14:30:47;;;;;;;12.98;5.80;;;;;;;;;;4451014;32;20257;-57